Time;durP1;ratioP1;P1;durP2;ratioP2;P2;SDS_P1;SDS_P2;PMS_P1;PMS_P2;Temp;Humidity;BMP_temperature;BMP_pressure;BME280_temperature;BME280_humidity;BME280_pressure;Samples;Min_cycle;Max_cycle;Signal;HPM_P1;HPM_P2
2022/12/01 00:00:15;;;;;;;10.10;7.20;;;2.70;99.90;;;;;;5000206;28;20208;-68
2022/12/01 00:02:41;;;;;;;19.50;7.07;;;2.70;99.90;;;;;;5014090;28;20212;-68
2022/12/01 00:05:09;;;;;;;12.30;7.67;;;2.70;99.90;;;;;;5015361;28;20195;-69
2022/12/01 00:07:35;;;;;;;13.40;7.03;;;2.70;99.90;;;;;;5015225;28;20202;-68
2022/12/01 00:12:48;;;;;;;11.90;7.53;;;2.60;99.90;;;;;;5015775;28;20220;-68
2022/12/01 00:15:15;;;;;;;12.80;7.20;;;2.50;99.90;;;;;;5016580;28;20194;-68
2022/12/01 00:17:44;;;;;;;10.27;7.10;;;2.50;99.90;;;;;;5015293;28;20200;-68
2022/12/01 00:20:11;;;;;;;11.53;7.07;;;2.50;99.90;;;;;;5015690;28;20188;-67
2022/12/01 00:22:38;;;;;;;10.07;6.77;;;2.50;99.90;;;;;;5016394;28;20187;-68
2022/12/01 00:25:07;;;;;;;10.90;7.57;;;2.50;99.90;;;;;;5011300;28;20235;-68
2022/12/01 00:27:33;;;;;;;10.40;7.93;;;2.50;99.90;;;;;;5003049;28;20203;-66
2022/12/01 00:30:00;;;;;;;11.00;7.53;;;2.40;99.90;;;;;;4999420;28;20238;-69
2022/12/01 00:32:29;;;;;;;13.30;7.77;;;2.40;99.90;;;;;;5004948;28;20251;-68
2022/12/01 00:34:55;;;;;;;12.03;7.90;;;2.40;99.90;;;;;;5001048;28;20256;-67
2022/12/01 00:37:22;;;;;;;14.77;8.00;;;2.40;99.90;;;;;;5006517;28;20207;-68
2022/12/01 00:39:49;;;;;;;12.77;7.97;;;2.40;99.90;;;;;;4998575;28;20279;-70
2022/12/01 00:42:19;;;;;;;11.40;8.10;;;2.40;99.90;;;;;;4990603;28;20279;-68
2022/12/01 00:44:46;;;;;;;12.97;8.10;;;2.40;99.90;;;;;;4991090;28;20700;-68
2022/12/01 00:47:13;;;;;;;12.67;8.23;;;2.50;99.90;;;;;;4984266;28;20235;-70
2022/12/01 00:49:40;;;;;;;14.70;8.87;;;2.50;99.90;;;;;;4986123;28;20235;-70
2022/12/01 00:52:07;;;;;;;12.23;8.27;;;2.50;99.90;;;;;;4986496;28;20212;-68
2022/12/01 00:54:34;;;;;;;15.03;8.03;;;2.50;99.90;;;;;;4984270;28;20219;-71
2022/12/01 00:57:01;;;;;;;13.70;8.43;;;2.50;99.90;;;;;;4989758;28;20208;-68
2022/12/01 00:59:29;;;;;;;12.77;8.33;;;2.50;99.90;;;;;;4983121;28;20540;-70
2022/12/01 01:01:56;;;;;;;12.20;7.90;;;2.50;99.90;;;;;;4987209;28;20238;-70
2022/12/01 01:04:23;;;;;;;13.33;7.97;;;2.50;99.90;;;;;;4987372;28;20199;-69
2022/12/01 01:06:49;;;;;;;10.07;7.20;;;2.50;99.90;;;;;;4990244;28;20254;-70
2022/12/01 01:09:17;;;;;;;12.07;7.83;;;2.40;99.90;;;;;;4990131;28;20294;-69
2022/12/01 01:11:43;;;;;;;11.60;8.00;;;2.40;99.90;;;;;;4987800;28;20693;-69
2022/12/01 01:14:10;;;;;;;11.83;8.27;;;2.40;99.90;;;;;;4988557;28;20215;-68
2022/12/01 01:16:38;;;;;;;11.97;8.53;;;2.40;99.90;;;;;;4983413;28;20222;-70
2022/12/01 01:19:05;;;;;;;10.93;7.80;;;2.40;99.90;;;;;;4988766;28;20223;-68
2022/12/01 01:21:32;;;;;;;13.30;8.97;;;2.40;99.90;;;;;;4990017;28;20204;-69
2022/12/01 01:23:59;;;;;;;11.13;7.63;;;2.40;99.90;;;;;;4989168;28;20216;-68
2022/12/01 01:26:29;;;;;;;11.27;8.07;;;2.40;99.90;;;;;;4990287;28;20577;-70
2022/12/01 01:28:57;;;;;;;14.47;8.33;;;2.40;99.90;;;;;;4987170;28;20266;-69
2022/12/01 01:31:26;;;;;;;13.23;8.13;;;2.40;99.90;;;;;;4987530;28;20881;-70
2022/12/01 01:33:55;;;;;;;12.77;9.13;;;2.40;99.90;;;;;;4990277;28;20204;-69
2022/12/01 01:36:22;;;;;;;10.50;7.83;;;2.40;99.90;;;;;;4990304;28;20232;-71
2022/12/01 01:38:50;;;;;;;11.97;8.40;;;2.40;99.90;;;;;;4989588;28;20692;-70
2022/12/01 01:41:17;;;;;;;14.97;8.17;;;2.40;99.90;;;;;;4983476;28;20652;-69
2022/12/01 01:43:47;;;;;;;13.30;8.40;;;2.40;99.90;;;;;;4988641;28;20578;-71
2022/12/01 01:46:15;;;;;;;12.63;8.60;;;2.30;99.90;;;;;;4985973;28;20239;-70
2022/12/01 01:48:45;;;;;;;14.30;8.63;;;2.40;99.90;;;;;;4989227;28;20588;-70
2022/12/01 01:51:15;;;;;;;12.10;8.20;;;2.40;99.90;;;;;;4981597;28;20215;-69
2022/12/01 01:53:43;;;;;;;12.53;8.27;;;2.40;99.90;;;;;;4986641;28;20235;-70
2022/12/01 01:56:10;;;;;;;14.93;8.87;;;2.30;99.90;;;;;;4988798;28;20222;-69
2022/12/01 01:58:38;;;;;;;11.70;8.40;;;2.30;99.90;;;;;;4989656;28;20211;-68
2022/12/01 02:01:05;;;;;;;12.13;8.00;;;2.30;99.90;;;;;;4986722;28;20226;-69
2022/12/01 02:03:33;;;;;;;12.93;8.97;;;2.30;99.90;;;;;;4988756;28;20212;-69
2022/12/01 02:06:00;;;;;;;11.53;8.43;;;2.30;99.90;;;;;;4986298;28;20204;-72
2022/12/01 02:08:29;;;;;;;11.90;8.30;;;2.30;99.90;;;;;;4988653;28;20683;-72
2022/12/01 02:11:24;;;;;;;11.97;8.80;;;2.30;99.90;;;;;;4988536;28;20317;-72
2022/12/01 02:14:01;;;;;;;13.40;8.43;;;2.30;99.90;;;;;;4988784;28;20214;-73
2022/12/01 02:16:38;;;;;;;12.17;8.10;;;2.30;99.90;;;;;;4988922;28;20206;-72
2022/12/01 02:19:26;;;;;;;14.37;9.33;;;2.30;99.90;;;;;;4976922;28;20574;-72
2022/12/01 02:22:08;;;;;;;13.33;8.83;;;2.30;99.90;;;;;;4989850;28;20532;-72
2022/12/01 02:25:12;;;;;;;11.97;8.37;;;2.30;99.90;;;;;;4988438;28;20299;-71
2022/12/01 02:28:06;;;;;;;15.57;8.23;;;2.30;99.90;;;;;;4979966;28;20238;-72
2022/12/01 02:30:41;;;;;;;13.87;8.70;;;2.30;99.90;;;;;;4999567;28;20210;-72
2022/12/01 02:33:14;;;;;;;15.87;9.20;;;2.30;99.90;;;;;;5013617;28;20283;-71
2022/12/01 02:35:48;;;;;;;14.30;9.23;;;2.30;99.90;;;;;;5014885;28;20185;-72
2022/12/01 02:38:22;;;;;;;12.93;8.93;;;2.20;99.90;;;;;;5013828;28;20208;-73
2022/12/01 02:40:56;;;;;;;13.40;9.23;;;2.30;99.90;;;;;;5013351;28;20183;-73
2022/12/01 02:43:29;;;;;;;11.83;9.27;;;2.30;99.90;;;;;;5017187;28;20184;-72
2022/12/01 02:46:02;;;;;;;12.70;8.70;;;2.30;99.90;;;;;;5014655;28;20234;-72
2022/12/01 02:48:32;;;;;;;13.00;9.13;;;2.30;99.90;;;;;;5011562;28;20196;-72
2022/12/01 02:51:04;;;;;;;12.70;9.17;;;2.30;99.90;;;;;;5012440;28;20254;-72
2022/12/01 02:53:31;;;;;;;13.17;8.67;;;2.30;99.90;;;;;;5006983;28;20206;-72
2022/12/01 02:55:59;;;;;;;13.90;9.67;;;2.30;99.90;;;;;;5006130;28;20357;-73
2022/12/01 02:58:26;;;;;;;14.70;9.57;;;2.20;99.90;;;;;;5008101;28;20686;-74
2022/12/01 03:01:13;;;;;;;15.57;10.67;;;2.30;99.90;;;;;;5004542;28;20259;-72
2022/12/01 03:03:57;;;;;;;11.93;8.83;;;2.20;99.90;;;;;;5003073;28;20196;-72
2022/12/01 03:06:35;;;;;;;14.20;9.30;;;2.20;99.90;;;;;;4999827;28;20208;-74
2022/12/01 03:09:12;;;;;;;11.70;8.83;;;2.20;99.90;;;;;;4990129;28;20230;-73
2022/12/01 03:11:49;;;;;;;13.67;9.47;;;2.20;99.90;;;;;;4987812;28;20216;-73
2022/12/01 03:14:30;;;;;;;13.47;9.33;;;2.20;99.90;;;;;;4990581;28;20204;-74
2022/12/01 03:17:04;;;;;;;13.97;9.90;;;2.30;99.90;;;;;;4989916;28;20543;-74
2022/12/01 03:19:37;;;;;;;12.80;9.17;;;2.30;99.90;;;;;;4991495;28;20200;-73
2022/12/01 03:22:10;;;;;;;14.77;9.30;;;2.30;99.90;;;;;;4991222;28;20207;-73
2022/12/01 03:24:39;;;;;;;13.80;9.70;;;2.30;99.90;;;;;;4988780;28;20230;-74
2022/12/01 03:27:08;;;;;;;15.23;10.00;;;2.30;99.90;;;;;;4989932;28;20211;-71
2022/12/01 03:29:40;;;;;;;14.47;9.47;;;2.30;99.90;;;;;;4984255;28;20204;-74
2022/12/01 03:32:13;;;;;;;14.30;9.97;;;2.30;99.90;;;;;;4991044;28;20214;-74
2022/12/01 03:34:44;;;;;;;14.77;10.03;;;2.30;99.90;;;;;;4985791;28;20200;-72
2022/12/01 03:37:16;;;;;;;16.63;10.27;;;2.30;99.90;;;;;;4991205;28;20219;-72
2022/12/01 03:39:46;;;;;;;12.47;9.13;;;2.20;99.90;;;;;;4990641;28;20196;-73
2022/12/01 03:42:18;;;;;;;14.70;10.43;;;2.30;99.90;;;;;;4991518;28;20208;-73
2022/12/01 03:44:48;;;;;;;14.80;10.33;;;2.30;99.90;;;;;;4990106;28;20240;-72
2022/12/01 03:47:19;;;;;;;15.03;9.70;;;2.30;99.90;;;;;;4991504;28;20221;-73
2022/12/01 03:49:47;;;;;;;12.67;9.23;;;3.40;99.90;;;;;;4987657;28;20244;-73
2022/12/01 03:52:27;;;;;;;15.37;10.50;;;2.30;99.90;;;;;;4990587;28;20715;-74
2022/12/01 03:55:07;;;;;;;14.63;9.23;;;2.80;99.90;;;;;;4989334;28;20200;-72
2022/12/01 03:57:41;;;;;;;15.60;9.87;;;2.30;99.90;;;;;;4983178;28;20196;-72
2022/12/01 04:00:10;;;;;;;15.57;10.23;;;2.30;99.90;;;;;;4988743;28;20231;-72
2022/12/01 04:02:39;;;;;;;16.83;10.13;;;2.30;99.90;;;;;;4991085;28;20204;-72
2022/12/01 04:05:08;;;;;;;16.00;10.63;;;2.30;99.90;;;;;;4988803;28;20234;-73
2022/12/01 04:07:35;;;;;;;13.37;9.63;;;2.20;99.90;;;;;;4992384;28;20322;-72
2022/12/01 04:10:01;;;;;;;15.37;10.67;;;2.30;99.90;;;;;;4989243;28;20215;-73
2022/12/01 04:12:31;;;;;;;15.20;10.10;;;2.30;99.90;;;;;;4990992;28;20691;-73
2022/12/01 04:14:59;;;;;;;13.40;9.03;;;2.20;99.90;;;;;;4991596;28;20302;-72
2022/12/01 04:17:26;;;;;;;14.50;9.70;;;2.20;99.90;;;;;;4990673;28;20683;-73
2022/12/01 04:19:55;;;;;;;13.60;9.53;;;2.20;99.90;;;;;;4991041;28;20215;-73
2022/12/01 04:22:22;;;;;;;15.00;10.10;;;2.20;99.90;;;;;;4990002;28;20665;-72
2022/12/01 04:24:49;;;;;;;14.13;9.07;;;2.20;99.90;;;;;;4989237;28;20210;-72
2022/12/01 04:27:15;;;;;;;15.17;10.63;;;2.20;99.90;;;;;;4990395;28;20207;-73
2022/12/01 04:29:42;;;;;;;14.23;10.27;;;2.30;99.90;;;;;;4989610;28;20200;-74
2022/12/01 04:32:09;;;;;;;14.43;10.10;;;2.30;99.90;;;;;;4989112;28;20251;-74
2022/12/01 04:34:36;;;;;;;15.10;10.47;;;2.20;99.90;;;;;;4989752;28;20214;-74
2022/12/01 04:37:06;;;;;;;13.20;9.30;;;2.30;99.90;;;;;;4988945;28;20239;-72
2022/12/01 04:39:32;;;;;;;16.87;11.13;;;2.20;99.90;;;;;;4989528;28;20263;-73
2022/12/01 04:41:59;;;;;;;13.63;9.63;;;2.20;99.90;;;;;;4989530;28;20692;-74
2022/12/01 04:44:26;;;;;;;15.67;9.93;;;1.50;99.90;;;;;;4990269;28;20208;-70
2022/12/01 04:46:53;;;;;;;12.83;9.53;;;2.20;99.90;;;;;;4989369;28;20195;-71
2022/12/01 04:49:21;;;;;;;13.83;9.93;;;2.20;99.90;;;;;;4983766;28;20235;-72
2022/12/01 04:51:48;;;;;;;15.60;10.17;;;2.20;99.90;;;;;;4986148;28;20228;-71
2022/12/01 04:54:17;;;;;;;12.10;9.17;;;2.20;99.90;;;;;;4981981;28;20207;-71
2022/12/01 04:56:44;;;;;;;14.23;9.60;;;2.20;99.90;;;;;;4988830;28;20203;-72
2022/12/01 04:59:11;;;;;;;16.27;10.57;;;2.20;99.90;;;;;;4984113;28;20224;-72
2022/12/01 05:01:38;;;;;;;13.47;9.73;;;2.20;99.90;;;;;;4987020;28;20668;-71
2022/12/01 05:04:05;;;;;;;13.50;10.40;;;2.20;99.90;;;;;;4989869;28;20582;-72
2022/12/01 05:06:32;;;;;;;15.20;10.73;;;2.20;99.90;;;;;;4989550;28;20204;-69
2022/12/01 05:09:01;;;;;;;14.70;10.33;;;2.20;99.90;;;;;;4985751;28;20329;-71
2022/12/01 05:11:30;;;;;;;14.20;10.53;;;2.20;99.90;;;;;;4989859;28;20274;-71
2022/12/01 05:13:57;;;;;;;17.13;10.90;;;2.20;99.90;;;;;;4985749;28;20219;-71
2022/12/01 05:16:25;;;;;;;14.60;10.60;;;2.20;99.90;;;;;;4988286;28;20207;-72
2022/12/01 05:20:55;;;;;;;16.80;11.43;;;2.20;99.90;;;;;;4984272;28;20208;-70
2022/12/01 05:21:42;;;;;;;13.80;9.80;;;2.20;99.90;;;;;;4989281;28;20300;-72
2022/12/01 05:24:09;;;;;;;15.37;10.57;;;2.20;99.90;;;;;;4988296;28;20231;-72
2022/12/01 05:26:38;;;;;;;13.77;9.60;;;2.20;99.90;;;;;;4988451;28;20219;-71
2022/12/01 05:29:05;;;;;;;15.47;10.73;;;2.20;99.90;;;;;;4989269;28;20593;-71
2022/12/01 05:31:32;;;;;;;14.90;10.77;;;2.20;99.90;;;;;;4984577;28;20247;-72
2022/12/01 05:33:59;;;;;;;14.93;10.43;;;2.10;99.90;;;;;;4985812;28;20541;-72
2022/12/01 05:36:26;;;;;;;14.00;10.13;;;2.10;99.90;;;;;;4987381;28;20579;-72
2022/12/01 05:38:53;;;;;;;17.37;11.20;;;2.10;99.90;;;;;;4987909;28;20828;-71
2022/12/01 05:41:20;;;;;;;14.10;9.53;;;2.10;99.90;;;;;;4981624;28;20209;-72
2022/12/01 05:43:48;;;;;;;14.77;10.10;;;2.10;99.90;;;;;;4987116;28;20657;-72
2022/12/01 05:46:15;;;;;;;12.77;8.83;;;2.10;99.90;;;;;;4988329;28;20738;-74
2022/12/01 05:48:42;;;;;;;13.57;9.20;;;2.10;99.90;;;;;;4988227;28;20543;-73
2022/12/01 05:51:10;;;;;;;13.03;9.30;;;2.10;99.90;;;;;;4988307;28;20231;-73
2022/12/01 05:53:37;;;;;;;13.53;9.23;;;2.10;99.90;;;;;;4988383;28;20216;-73
2022/12/01 05:56:04;;;;;;;14.23;9.13;;;2.20;99.90;;;;;;4988972;28;20215;-70
2022/12/01 05:58:31;;;;;;;13.37;9.77;;;2.10;99.90;;;;;;4985233;28;20212;-72
2022/12/01 06:00:59;;;;;;;12.63;9.17;;;2.10;99.90;;;;;;4987654;28;20235;-72
2022/12/01 06:03:26;;;;;;;13.60;9.93;;;2.20;99.90;;;;;;4985085;28;20208;-72
2022/12/01 06:05:53;;;;;;;12.13;9.50;;;2.20;99.90;;;;;;4989495;28;20222;-72
2022/12/01 06:08:19;;;;;;;15.33;9.33;;;2.20;99.90;;;;;;4989096;28;20223;-72
2022/12/01 06:10:47;;;;;;;13.60;9.37;;;2.20;99.90;;;;;;4988352;28;20715;-72
2022/12/01 06:13:13;;;;;;;13.10;9.27;;;2.20;99.90;;;;;;4987645;28;20219;-69
2022/12/01 06:15:40;;;;;;;12.30;9.10;;;2.20;99.90;;;;;;4986606;28;20231;-67
2022/12/01 06:18:08;;;;;;;13.23;9.53;;;2.20;99.90;;;;;;4985477;28;20912;-68
2022/12/01 06:20:35;;;;;;;12.33;9.03;;;2.30;99.90;;;;;;4991576;28;20550;-70
2022/12/01 06:23:02;;;;;;;14.98;12.50;;;2.20;99.90;;;;;;4992303;28;20809;-70
2022/12/01 06:25:29;;;;;;;13.73;10.10;;;2.20;99.90;;;;;;4993445;28;20207;-72
2022/12/01 06:27:57;;;;;;;13.60;10.03;;;2.20;99.90;;;;;;4994830;28;20235;-73
2022/12/01 06:30:24;;;;;;;12.70;9.17;;;2.20;99.90;;;;;;4988907;28;20235;-75
2022/12/01 06:32:50;;;;;;;13.33;9.27;;;2.20;99.90;;;;;;4988421;28;20238;-69
2022/12/01 06:35:19;;;;;;;11.90;8.83;;;2.40;99.90;;;;;;4992438;28;20304;-69
2022/12/01 06:37:46;;;;;;;12.33;8.90;;;2.30;99.90;;;;;;4996430;28;20216;-70
2022/12/01 06:40:13;;;;;;;14.97;10.23;;;2.30;99.90;;;;;;5004626;28;20756;-71
2022/12/01 06:42:40;;;;;;;14.50;10.23;;;2.30;99.90;;;;;;4998312;28;20217;-70
2022/12/01 06:45:07;;;;;;;12.50;9.37;;;2.30;99.90;;;;;;4998925;28;20315;-70
2022/12/01 06:47:34;;;;;;;15.53;10.60;;;2.30;99.90;;;;;;4991636;28;20211;-69
2022/12/01 06:50:02;;;;;;;13.93;9.60;;;2.30;99.90;;;;;;4999909;28;20212;-68
2022/12/01 06:52:30;;;;;;;11.07;8.43;;;2.30;99.90;;;;;;4985858;28;20212;-71
2022/12/01 06:54:57;;;;;;;12.40;8.53;;;2.40;99.90;;;;;;5003079;28;20222;-70
2022/12/01 06:57:24;;;;;;;14.93;9.87;;;2.40;99.90;;;;;;5000646;28;20236;-71
2022/12/01 06:59:51;;;;;;;11.50;8.00;;;2.40;99.90;;;;;;4999394;28;20323;-70
2022/12/01 07:02:18;;;;;;;11.97;9.00;;;2.40;99.90;;;;;;4997036;28;20207;-70
2022/12/01 07:04:44;;;;;;;15.37;10.27;;;2.40;99.90;;;;;;4997751;28;20216;-70
2022/12/01 07:07:11;;;;;;;14.23;8.37;;;2.40;99.90;;;;;;4995388;28;20212;-70
2022/12/01 07:09:40;;;;;;;14.77;9.53;;;2.40;99.90;;;;;;4994049;28;20204;-66
2022/12/01 07:12:07;;;;;;;13.70;9.40;;;2.40;99.90;;;;;;4986736;28;20232;-70
2022/12/01 07:14:34;;;;;;;13.20;9.30;;;2.30;99.90;;;;;;4981320;28;20238;-70
2022/12/01 07:17:01;;;;;;;14.03;9.07;;;2.40;99.90;;;;;;4989562;28;20302;-69
2022/12/01 07:19:28;;;;;;;13.33;8.90;;;2.40;99.90;;;;;;4991307;28;20208;-66
2022/12/01 07:21:55;;;;;;;15.07;9.20;;;2.40;99.90;;;;;;4990776;28;20208;-70
2022/12/01 07:24:21;;;;;;;16.00;9.90;;;2.40;99.90;;;;;;4990788;28;20212;-70
2022/12/01 07:26:49;;;;;;;14.83;9.97;;;2.40;99.90;;;;;;4982513;28;20674;-69
2022/12/01 07:29:16;;;;;;;14.97;10.67;;;2.40;99.90;;;;;;4989014;28;20218;-71
2022/12/01 07:31:43;;;;;;;14.87;9.67;;;2.40;99.90;;;;;;4989135;28;20220;-64
2022/12/01 07:34:12;;;;;;;16.27;10.93;;;2.40;99.90;;;;;;4998207;28;20216;-66
2022/12/01 07:36:38;;;;;;;15.87;10.67;;;2.40;99.90;;;;;;4991893;28;20211;-67
2022/12/01 07:39:06;;;;;;;17.67;10.83;;;2.40;99.90;;;;;;4996133;28;20210;-65
2022/12/01 07:41:34;;;;;;;24.03;10.57;;;2.50;99.90;;;;;;4992656;28;20211;-68
2022/12/01 07:44:02;;;;;;;19.20;11.50;;;2.50;99.90;;;;;;4993929;28;20223;-67
2022/12/01 07:46:29;;;;;;;16.57;10.23;;;2.50;99.90;;;;;;4980282;28;20243;-67
2022/12/01 07:48:57;;;;;;;14.23;9.77;;;2.50;99.90;;;;;;4989066;28;20573;-65
2022/12/01 07:51:25;;;;;;;17.47;10.80;;;2.50;99.90;;;;;;4991904;28;20875;-66
2022/12/01 07:53:53;;;;;;;16.30;10.77;;;2.50;99.90;;;;;;4991288;28;20204;-66
2022/12/01 07:56:21;;;;;;;19.80;11.97;;;2.50;99.90;;;;;;4988795;28;20223;-66
2022/12/01 07:58:49;;;;;;;17.40;11.27;;;2.50;99.90;;;;;;4988422;28;20652;-70
2022/12/01 08:01:19;;;;;;;16.43;11.00;;;2.50;99.90;;;;;;4990348;28;20707;-68
2022/12/01 08:03:47;;;;;;;15.17;10.43;;;2.50;99.90;;;;;;4991678;28;20211;-68
2022/12/01 08:06:14;;;;;;;14.43;10.47;;;2.40;99.90;;;;;;4990501;28;20217;-68
2022/12/01 08:08:42;;;;;;;13.87;9.73;;;2.50;99.90;;;;;;4992895;28;20219;-77
2022/12/01 08:11:11;;;;;;;14.13;10.50;;;2.50;99.90;;;;;;4992298;28;20219;-71
2022/12/01 08:13:39;;;;;;;16.80;10.57;;;2.50;99.90;;;;;;4992481;28;20219;-70
2022/12/01 08:16:07;;;;;;;13.80;9.77;;;2.50;99.90;;;;;;4992439;28;20227;-64
2022/12/01 08:18:36;;;;;;;14.63;10.30;;;2.40;99.90;;;;;;4996457;28;20208;-66
2022/12/01 08:21:03;;;;;;;15.30;10.37;;;2.40;99.90;;;;;;4996277;28;20212;-70
2022/12/01 08:23:30;;;;;;;16.87;10.63;;;2.40;99.90;;;;;;4995335;28;20208;-68
2022/12/01 08:26:00;;;;;;;16.70;10.93;;;2.40;99.90;;;;;;4987938;28;20208;-68
2022/12/01 08:28:27;;;;;;;16.07;10.70;;;2.40;99.90;;;;;;4988866;28;20207;-70
2022/12/01 08:30:54;;;;;;;15.60;11.83;;;2.40;99.90;;;;;;4986532;28;20214;-71
2022/12/01 08:33:21;;;;;;;15.67;11.63;;;2.40;99.90;;;;;;4990181;28;20232;-69
2022/12/01 08:35:49;;;;;;;15.77;11.00;;;2.40;99.90;;;;;;4986223;28;20231;-67
2022/12/01 08:38:16;;;;;;;17.23;10.73;;;2.40;99.90;;;;;;4988213;28;20212;-70
2022/12/01 08:40:43;;;;;;;15.17;10.40;;;2.40;99.90;;;;;;4990644;28;20469;-73
2022/12/01 08:43:09;;;;;;;17.70;11.30;;;2.40;99.90;;;;;;4990087;28;20210;-70
2022/12/01 08:45:36;;;;;;;15.60;11.27;;;2.40;99.90;;;;;;4986613;28;20606;-70
2022/12/01 08:48:03;;;;;;;14.30;10.80;;;2.40;99.90;;;;;;4985929;28;20207;-73
2022/12/01 08:50:30;;;;;;;15.30;10.20;;;2.40;99.90;;;;;;4990996;28;20668;-71
2022/12/01 08:52:58;;;;;;;16.43;10.50;;;2.40;99.90;;;;;;4988586;28;20231;-71
2022/12/01 08:55:25;;;;;;;14.90;9.70;;;2.40;99.90;;;;;;4988997;28;20661;-73
2022/12/01 08:57:51;;;;;;;17.30;10.93;;;2.40;99.90;;;;;;4991304;28;20223;-73
2022/12/01 09:00:18;;;;;;;15.37;9.77;;;2.40;99.90;;;;;;4988573;28;20216;-70
2022/12/01 09:02:46;;;;;;;17.93;10.70;;;2.40;99.90;;;;;;4988394;28;20211;-73
2022/12/01 09:05:12;;;;;;;14.63;9.87;;;2.40;99.90;;;;;;4987302;28;20238;-72
2022/12/01 09:07:39;;;;;;;15.63;10.10;;;2.50;99.90;;;;;;4987869;28;20212;-73
2022/12/01 09:10:09;;;;;;;13.73;9.83;;;2.50;99.90;;;;;;4983753;28;20212;-71
2022/12/01 09:12:36;;;;;;;16.03;9.50;;;2.50;99.90;;;;;;4987875;28;20246;-73
2022/12/01 09:15:03;;;;;;;21.17;12.40;;;2.50;99.90;;;;;;4988964;28;20215;-75
2022/12/01 09:17:30;;;;;;;16.73;11.17;;;2.50;99.90;;;;;;4988783;28;20612;-72
2022/12/01 09:19:57;;;;;;;16.53;10.40;;;2.50;99.90;;;;;;4987510;28;20633;-73
2022/12/01 09:22:23;;;;;;;15.53;10.27;;;2.50;99.90;;;;;;4988036;28;20196;-72
2022/12/01 09:24:50;;;;;;;19.07;11.03;;;2.50;99.90;;;;;;4989736;28;20220;-70
2022/12/01 09:27:18;;;;;;;15.03;10.73;;;2.50;99.90;;;;;;4988851;28;20300;-74
2022/12/01 09:29:45;;;;;;;15.27;10.37;;;2.50;99.90;;;;;;4986482;28;20212;-73
2022/12/01 09:32:12;;;;;;;16.03;10.23;;;2.60;99.90;;;;;;4985693;28;20716;-72
2022/12/01 09:34:38;;;;;;;14.17;9.67;;;2.60;99.90;;;;;;4989606;28;20215;-71
2022/12/01 09:37:06;;;;;;;14.97;10.33;;;2.50;99.90;;;;;;4987892;28;20215;-70
2022/12/01 09:39:33;;;;;;;17.87;11.57;;;2.50;99.90;;;;;;4989308;28;20683;-70
2022/12/01 09:42:04;;;;;;;19.80;11.63;;;2.50;99.90;;;;;;4988444;28;20563;-71
2022/12/01 09:44:39;;;;;;;19.27;12.20;;;2.50;99.90;;;;;;4978436;28;20672;-72
2022/12/01 09:47:13;;;;;;;18.93;12.37;;;2.50;99.90;;;;;;4986124;28;20602;-71
2022/12/01 09:49:52;;;;;;;20.80;12.37;;;2.50;99.90;;;;;;4987107;28;20208;-70
2022/12/01 09:52:20;;;;;;;21.03;13.37;;;2.50;99.90;;;;;;4991473;28;20700;-71
2022/12/01 09:54:47;;;;;;;20.03;12.90;;;2.50;99.90;;;;;;4992710;28;20237;-72
2022/12/01 09:57:17;;;;;;;18.80;13.43;;;2.40;99.90;;;;;;4991857;28;20218;-72
2022/12/01 09:59:46;;;;;;;20.33;13.30;;;2.40;99.90;;;;;;4993143;28;20230;-72
2022/12/01 10:02:26;;;;;;;21.97;14.30;;;2.40;99.90;;;;;;4991526;28;20203;-71
2022/12/01 10:04:55;;;;;;;21.13;13.93;;;2.40;99.90;;;;;;4989330;28;20216;-70
2022/12/01 10:07:25;;;;;;;19.27;12.97;;;2.40;99.90;;;;;;4989835;28;20622;-69
2022/12/01 10:09:56;;;;;;;21.33;13.63;;;2.40;99.90;;;;;;4988779;28;20219;-76
2022/12/01 10:12:26;;;;;;;19.53;13.00;;;2.40;99.90;;;;;;4988857;28;20230;-72
2022/12/01 10:15:02;;;;;;;21.10;13.17;;;2.40;99.90;;;;;;4985959;28;20248;-71
2022/12/01 10:17:46;;;;;;;19.77;13.17;;;2.30;99.90;;;;;;4993055;28;20598;-71
2022/12/01 10:20:18;;;;;;;17.93;13.00;;;2.40;99.90;;;;;;4991229;28;20238;-70
2022/12/01 10:22:58;;;;;;;19.40;13.57;;;2.40;99.90;;;;;;4994535;28;20230;-71
2022/12/01 10:25:27;;;;;;;23.30;13.93;;;2.40;99.90;;;;;;4993465;28;20582;-71
2022/12/01 10:28:06;;;;;;;24.53;13.67;;;2.40;99.90;;;;;;4985209;28;20207;-70
2022/12/01 10:30:38;;;;;;;24.00;14.87;;;2.40;99.90;;;;;;4994558;28;20758;-69
2022/12/01 10:33:15;;;;;;;26.87;15.43;;;2.40;99.90;;;;;;4993932;28;20235;-70
2022/12/01 10:35:42;;;;;;;23.33;14.50;;;2.40;99.90;;;;;;4990144;28;20845;-72
2022/12/01 10:38:14;;;;;;;21.57;13.53;;;2.40;99.90;;;;;;4989432;28;20219;-71
2022/12/01 10:40:42;;;;;;;23.47;13.87;;;2.40;99.90;;;;;;4990537;28;20238;-72
2022/12/01 10:43:10;;;;;;;22.87;13.50;;;2.30;99.90;;;;;;4992585;28;20582;-71
2022/12/01 10:45:43;;;;;;;19.67;12.17;;;2.30;99.90;;;;;;4991123;28;20613;-72
2022/12/01 10:48:20;;;;;;;18.43;11.80;;;2.30;99.90;;;;;;4988643;28;20653;-73
2022/12/01 10:50:48;;;;;;;19.30;12.60;;;2.40;99.90;;;;;;4987389;28;20696;-70
2022/12/01 10:53:30;;;;;;;19.07;12.77;;;2.40;99.90;;;;;;4989982;28;20593;-70
2022/12/01 10:56:03;;;;;;;21.63;14.00;;;2.50;99.90;;;;;;4989189;28;20302;-71
2022/12/01 10:58:32;;;;;;;23.53;15.13;;;2.50;99.90;;;;;;4991756;28;20208;-73
2022/12/01 11:01:03;;;;;;;20.70;13.53;;;2.50;99.90;;;;;;4992483;28;20247;-72
2022/12/01 11:03:32;;;;;;;20.77;14.10;;;2.50;99.90;;;;;;4991513;28;20200;-73
2022/12/01 11:06:01;;;;;;;24.17;14.73;;;2.50;99.90;;;;;;4990185;28;20974;-73
2022/12/01 11:08:38;;;;;;;27.23;14.90;;;2.50;99.90;;;;;;4991162;28;20215;-73
2022/12/01 11:11:06;;;;;;;22.30;13.33;;;2.50;99.90;;;;;;4987476;28;20540;-72
2022/12/01 11:13:36;;;;;;;22.63;13.73;;;2.50;99.90;;;;;;4988065;28;20231;-73
2022/12/01 11:16:07;;;;;;;24.03;13.73;;;2.50;99.90;;;;;;4988902;28;20243;-73
2022/12/01 11:18:35;;;;;;;24.67;13.93;;;2.50;99.90;;;;;;4989188;28;20204;-72
2022/12/01 11:21:08;;;;;;;25.07;14.33;;;2.50;99.90;;;;;;4991823;28;20219;-73
2022/12/01 11:23:37;;;;;;;24.30;13.97;;;2.40;99.90;;;;;;4992201;28;20881;-72
2022/12/01 11:26:13;;;;;;;23.60;14.27;;;2.40;99.90;;;;;;4991677;28;20204;-71
2022/12/01 11:28:50;;;;;;;27.77;15.40;;;2.30;99.90;;;;;;4988207;28;20203;-71
2022/12/01 11:31:19;;;;;;;27.43;14.93;;;2.30;99.90;;;;;;4990485;28;20318;-70
2022/12/01 11:33:50;;;;;;;26.83;15.73;;;2.30;99.90;;;;;;4991057;28;20227;-69
2022/12/01 11:36:27;;;;;;;28.13;15.80;;;2.30;99.90;;;;;;4990065;28;20210;-71
2022/12/01 11:39:00;;;;;;;29.63;16.37;;;2.30;99.90;;;;;;4990107;28;20199;-72
2022/12/01 11:41:31;;;;;;;30.50;16.27;;;2.40;99.90;;;;;;4992252;28;20208;-71
2022/12/01 11:44:01;;;;;;;29.77;16.93;;;2.30;99.90;;;;;;4989537;28;21854;-74
2022/12/01 11:46:33;;;;;;;31.10;16.63;;;2.40;99.90;;;;;;4989844;28;20235;-70
2022/12/01 11:49:01;;;;;;;29.13;16.27;;;2.40;99.90;;;;;;4984566;28;20680;-73
2022/12/01 11:51:35;;;;;;;28.10;15.77;;;2.50;99.90;;;;;;4988445;28;20590;-71
2022/12/01 11:54:14;;;;;;;28.63;16.83;;;2.40;99.90;;;;;;4986152;28;20305;-73
2022/12/01 11:56:41;;;;;;;29.73;16.37;;;2.30;99.90;;;;;;4985128;28;20204;-73
2022/12/01 11:59:13;;;;;;;25.37;15.00;;;2.50;99.90;;;;;;4988541;28;20307;-70
2022/12/01 12:02:03;;;;;;;26.00;14.30;;;2.40;99.90;;;;;;4985197;28;20649;-71
2022/12/01 12:04:48;;;;;;;30.03;15.50;;;2.40;99.90;;;;;;4982798;28;20234;-70
2022/12/01 12:07:20;;;;;;;28.13;16.10;;;2.40;99.90;;;;;;4981156;28;20222;-72
2022/12/01 12:10:05;;;;;;;27.50;15.33;;;2.40;99.90;;;;;;4987630;28;20202;-71
2022/12/01 12:12:47;;;;;;;26.97;14.47;;;2.40;99.90;;;;;;4991777;28;20580;-71
2022/12/01 12:15:24;;;;;;;26.73;14.27;;;2.40;99.90;;;;;;4986669;28;20231;-72
2022/12/01 12:18:06;;;;;;;30.97;14.70;;;2.40;99.90;;;;;;4979160;28;20629;-69
2022/12/01 12:20:42;;;;;;;24.63;13.83;;;2.40;99.90;;;;;;4990770;28;20231;-68
2022/12/01 12:23:30;;;;;;;28.50;14.10;;;2.40;99.90;;;;;;4989716;28;20215;-71
2022/12/01 12:26:09;;;;;;;24.37;14.27;;;2.40;99.90;;;;;;4986420;28;20218;-72
2022/12/01 12:28:59;;;;;;;23.97;14.03;;;2.40;99.90;;;;;;4990108;28;20211;-72
2022/12/01 12:31:39;;;;;;;23.33;14.20;;;2.40;99.90;;;;;;4990258;28;20289;-73
2022/12/01 12:34:26;;;;;;;33.30;15.17;;;2.40;99.90;;;;;;4986267;28;20227;-70
2022/12/01 12:37:05;;;;;;;27.70;13.80;;;2.30;99.90;;;;;;4988263;28;20200;-69
2022/12/01 12:39:45;;;;;;;32.77;15.17;;;2.40;99.90;;;;;;4990843;28;20219;-73
2022/12/01 12:42:22;;;;;;;26.30;14.20;;;2.40;99.90;;;;;;4987269;28;20207;-66
2022/12/01 12:44:53;;;;;;;24.20;14.40;;;2.30;99.90;;;;;;4989378;28;20617;-70
2022/12/01 12:47:31;;;;;;;28.07;15.87;;;2.30;99.90;;;;;;4990302;28;20665;-67
2022/12/01 12:50:10;;;;;;;26.47;14.90;;;2.30;99.90;;;;;;4989402;28;20680;-72
2022/12/01 12:52:40;;;;;;;26.63;14.43;;;2.30;99.90;;;;;;4987678;28;20590;-71
2022/12/01 12:55:15;;;;;;;27.47;14.83;;;2.30;99.90;;;;;;4988754;28;20282;-69
2022/12/01 12:57:46;;;;;;;27.43;14.20;;;2.30;99.90;;;;;;4988832;28;20215;-69